createdAt,value
2023-02-06T00:01:53.596Z,101780.88
2023-02-06T00:06:56.300Z,101788.16
2023-02-06T00:17:47.221Z,101766.44
2023-02-06T00:22:49.933Z,101751.50
2023-02-06T00:27:52.658Z,101746.41
2023-02-06T00:32:56.774Z,101737.91
2023-02-06T00:38:00.126Z,101746.88
2023-02-06T00:43:03.651Z,101742.78
2023-02-06T00:48:09.095Z,101736.59
2023-02-06T00:53:12.392Z,101733.19
2023-02-06T00:58:15.176Z,101732.44
2023-02-06T01:03:20.523Z,101744.22
2023-02-06T01:08:23.249Z,101741.03
2023-02-06T01:13:27.479Z,101741.41
2023-02-06T01:18:31.536Z,101737.16
2023-02-06T01:23:35.033Z,101746.88
2023-02-06T01:28:37.930Z,101746.59
2023-02-06T01:33:42.206Z,101750.09
2023-02-06T01:38:45.247Z,101749.72
2023-02-06T01:44:07.153Z,101762.94
2023-02-06T01:49:13.831Z,101749.72
2023-02-06T01:54:16.710Z,101755.03
2023-02-06T01:59:20.774Z,101743.88
2023-02-06T02:04:27.742Z,101743.28
2023-02-06T02:09:30.900Z,101730.78
2023-02-06T02:14:33.605Z,101722.16
2023-02-06T02:20:08.121Z,101714.63
2023-02-06T02:25:32.642Z,101716.34
2023-02-06T02:30:58.558Z,101714.84
2023-02-06T02:36:06.418Z,101719.34
2023-02-06T02:41:16.395Z,101721.41
2023-02-06T02:46:23.825Z,101724.53
2023-02-06T02:51:30.808Z,101714.84
2023-02-06T02:56:36.711Z,101725.38
2023-02-06T03:01:44.771Z,101709.00
2023-02-06T03:06:58.282Z,101722.56
2023-02-06T03:12:07.869Z,101726.75
2023-02-06T03:17:12.294Z,101740.72
2023-02-06T03:22:16.728Z,101733.66
2023-02-06T03:27:20.113Z,101739.88
2023-02-06T03:32:25.347Z,101739.13
2023-02-06T03:37:32.661Z,101733.66
2023-02-06T03:42:37.131Z,101734.75
2023-02-06T03:47:40.635Z,101728.47
2023-02-06T03:52:49.316Z,101735.72
2023-02-06T03:57:55.098Z,101730.00
2023-02-06T04:02:59.091Z,101727.97
2023-02-06T04:08:03.134Z,101721.78
2023-02-06T04:13:05.792Z,101727.22
2023-02-06T04:18:08.482Z,101716.28
2023-02-06T04:23:14.851Z,101720.66
2023-02-06T04:28:20.507Z,101720.88
2023-02-06T04:33:23.298Z,101725.22
2023-02-06T04:38:27.434Z,101734.91
2023-02-06T04:43:30.141Z,101735.09
2023-02-06T04:48:32.813Z,101742.44
2023-02-06T04:53:36.918Z,101751.38
2023-02-06T04:58:42.498Z,101754.41
2023-02-06T05:03:45.186Z,101749.91
2023-02-06T05:08:49.242Z,101745.56
2023-02-06T05:13:54.696Z,101763.34
2023-02-06T05:19:01.009Z,101742.03
2023-02-06T05:24:06.143Z,101743.00
2023-02-06T05:29:11.936Z,101727.09
2023-02-06T05:34:14.901Z,101737.06
2023-02-06T05:39:18.952Z,101745.91
2023-02-06T05:44:25.957Z,101740.66
2023-02-06T05:49:28.572Z,101731.81
2023-02-06T05:54:32.799Z,101729.25
2023-02-06T05:59:37.858Z,101715.94
2023-02-06T06:04:42.115Z,101710.84
2023-02-06T06:09:46.076Z,101716.16
2023-02-06T06:14:48.765Z,101711.81
2023-02-06T06:19:52.704Z,101705.97
2023-02-06T06:24:56.864Z,101725.38
2023-02-06T06:29:59.592Z,101731.78
2023-02-06T06:35:12.091Z,101737.19
2023-02-06T06:40:16.181Z,101726.66
2023-02-06T06:45:21.677Z,101717.81
2023-02-06T06:50:24.464Z,101704.63
2023-02-06T06:55:28.512Z,101718.88
2023-02-06T07:00:31.281Z,101719.72
2023-02-06T07:05:37.684Z,101730.38
2023-02-06T07:10:44.022Z,101726.16
2023-02-06T07:15:49.495Z,101732.34
2023-02-06T07:20:55.095Z,101739.56
2023-02-06T07:26:02.245Z,101740.56
2023-02-06T07:31:08.494Z,101730.59
2023-02-06T07:36:13.994Z,101740.31
2023-02-06T07:41:19.542Z,101730.75
2023-02-06T07:46:22.300Z,101731.25
2023-02-06T07:51:28.222Z,101724.97
2023-02-06T07:56:32.424Z,101721.13
2023-02-06T08:01:37.061Z,101717.47
2023-02-06T08:06:41.686Z,101719.69
2023-02-06T08:11:45.942Z,101714.16
2023-02-06T08:16:57.150Z,101717.94
2023-02-06T08:22:04.287Z,101730.69
2023-02-06T08:27:08.330Z,101732.28
2023-02-06T08:32:14.966Z,101740.03
2023-02-06T08:37:46.342Z,101736.19
2023-02-06T08:42:56.120Z,101732.72
2023-02-06T08:48:01.850Z,101733.34
2023-02-06T08:53:04.553Z,101736.75
2023-02-06T08:58:09.715Z,101742.19
2023-02-06T09:03:12.407Z,101731.66
2023-02-06T09:08:18.419Z,101738.16
2023-02-06T09:13:23.280Z,101747.88
2023-02-06T09:18:29.159Z,101746.78
2023-02-06T09:23:34.416Z,101745.69
2023-02-06T09:28:45.044Z,101738.56
2023-02-06T09:33:48.273Z,101740.66
2023-02-06T09:38:57.303Z,101746.34
2023-02-06T09:44:06.020Z,101748.44
2023-02-06T09:50:11.103Z,101749.44
2023-02-06T10:01:41.362Z,101751.50
2023-02-06T10:06:49.151Z,101746.03
2023-02-06T10:11:56.297Z,101739.75
2023-02-06T10:17:02.599Z,101747.38
2023-02-06T10:22:11.476Z,101750.94
2023-02-06T10:27:16.810Z,101740.63
2023-02-06T10:32:36.238Z,101717.25
2023-02-06T10:37:57.101Z,101725.94
2023-02-06T10:43:03.143Z,101701.44
2023-02-06T10:48:17.726Z,101710.19
2023-02-06T10:53:22.514Z,101708.59
2023-02-06T10:58:30.713Z,101694.66
2023-02-06T11:03:39.847Z,101684.25
2023-02-06T11:08:53.160Z,101681.66
2023-02-06T11:14:02.225Z,101694.75
2023-02-06T11:19:18.830Z,101692.34
2023-02-06T11:24:24.563Z,101686.16
2023-02-06T11:29:34.015Z,101679.13
2023-02-06T11:34:48.997Z,101670.41
2023-02-06T11:46:16.761Z,101666.25
2023-02-06T11:51:22.381Z,101656.56
2023-02-06T11:56:30.379Z,101647.84
2023-02-06T12:01:51.824Z,101646.25
2023-02-06T12:07:02.676Z,101635.47
2023-02-06T12:12:33.626Z,101641.28
2023-02-06T12:17:46.697Z,101633.28
2023-02-06T12:22:55.848Z,101635.00
2023-02-06T12:28:06.165Z,101636.56
2023-02-06T12:33:20.561Z,101621.75
2023-02-06T12:38:34.086Z,101621.75
2023-02-06T12:43:58.019Z,101619.94
2023-02-06T12:49:06.291Z,101613.16
2023-02-06T12:54:30.263Z,101618.00
2023-02-06T12:59:58.388Z,101608.31
2023-02-06T13:10:35.901Z,101610.00
2023-02-06T13:15:43.121Z,101604.06
2023-02-06T13:21:19.342Z,101585.50
2023-02-06T13:27:03.221Z,101600.44
2023-02-06T13:32:43.031Z,101594.25
2023-02-06T13:37:50.461Z,101584.41
2023-02-06T13:42:58.762Z,101588.91
2023-02-06T13:48:46.348Z,101587.94
2023-02-06T13:54:44.471Z,101588.91
2023-02-06T13:59:52.224Z,101577.66
2023-02-06T14:04:55.037Z,101580.19
2023-02-06T14:10:24.779Z,101592.56
2023-02-06T14:15:34.980Z,101587.34
2023-02-06T14:20:48.748Z,101595.09
2023-02-06T14:26:02.965Z,101588.06
2023-02-06T14:31:24.304Z,101588.06
2023-02-06T14:36:42.398Z,101589.75
2023-02-06T14:41:45.086Z,101598.16
2023-02-06T14:46:51.628Z,101594.59
2023-02-06T14:51:58.777Z,101593.75
2023-02-06T14:57:07.219Z,101584.06
2023-02-06T15:02:21.832Z,101589.41
2023-02-06T15:07:29.981Z,101586.25
2023-02-06T15:12:33.136Z,101605.66
2023-02-06T15:17:38.716Z,101595.19
2023-02-06T15:22:43.661Z,101591.84
2023-02-06T15:27:49.480Z,101586.72
2023-02-06T15:32:55.985Z,101593.75
2023-02-06T15:38:04.985Z,101594.00
2023-02-06T15:43:07.710Z,101587.44
2023-02-06T15:48:19.454Z,101576.78
2023-02-06T15:53:48.773Z,101557.28
2023-02-06T15:58:58.464Z,101551.22
2023-02-06T16:04:14.100Z,101542.38
2023-02-06T16:09:23.870Z,101561.50
2023-02-06T16:14:34.071Z,101556.94
2023-02-06T16:19:47.364Z,101567.59
2023-02-06T16:24:50.650Z,101558.19
2023-02-06T16:29:57.817Z,101559.66
2023-02-06T16:35:02.120Z,101548.50
2023-02-06T16:40:05.610Z,101555.34
2023-02-06T16:45:10.595Z,101551.56
2023-02-06T16:50:14.803Z,101542.97
2023-02-06T16:55:22.812Z,101543.56
2023-02-06T17:00:30.138Z,101544.56
2023-02-06T17:05:37.241Z,101543.28
2023-02-06T17:10:41.833Z,101546.09
2023-02-06T17:15:47.029Z,101550.03
2023-02-06T17:20:52.769Z,101537.91
2023-02-06T17:25:55.444Z,101530.72
2023-02-06T17:51:08.571Z,101556.47
2023-02-06T17:56:15.580Z,101556.84
2023-02-06T18:13:50.269Z,101532.81
2023-02-06T18:18:56.700Z,101535.91
2023-02-06T18:24:04.893Z,101538.81
2023-02-06T18:29:12.395Z,101537.38
2023-02-06T18:34:15.375Z,101553.81
2023-02-06T18:39:18.134Z,101550.22
2023-02-06T18:44:23.787Z,101554.72
2023-02-06T18:49:29.393Z,101551.78
2023-02-06T18:54:35.595Z,101555.69
2023-02-06T18:59:39.699Z,101558.22
2023-02-06T19:30:41.962Z,101544.38
2023-02-06T20:13:09.247Z,101573.25
2023-02-06T20:18:40.139Z,101575.47
2023-02-06T20:35:54.235Z,101568.19
2023-02-06T20:40:59.813Z,101575.75
2023-02-06T20:46:07.467Z,101564.59
2023-02-06T20:51:13.561Z,101574.06
2023-02-06T20:56:16.710Z,101567.16
2023-02-06T21:01:23.202Z,101559.03
2023-02-06T21:06:29.300Z,101565.47
2023-02-06T21:11:45.515Z,101562.69
2023-02-06T21:16:49.901Z,101559.28
2023-02-06T21:29:16.851Z,101567.31
2023-02-06T21:35:14.018Z,101553.00
2023-02-06T21:47:23.377Z,101550.69
2023-02-06T21:52:26.036Z,101552.28
2023-02-06T21:57:28.679Z,101548.88
2023-02-06T22:02:42.213Z,101551.22
2023-02-06T22:07:44.999Z,101547.09
2023-02-06T22:12:55.252Z,101542.47
2023-02-06T22:17:59.418Z,101531.91
2023-02-06T22:23:02.157Z,101523.56
2023-02-06T22:28:07.329Z,101511.06
2023-02-06T22:33:26.474Z,101493.47
2023-02-06T22:38:36.735Z,101509.97
2023-02-06T22:43:46.245Z,101530.38
2023-02-06T22:49:20.230Z,101525.75
2023-02-06T22:54:27.989Z,101534.22
2023-02-06T22:59:30.916Z,101536.06
2023-02-06T23:04:40.695Z,101537.25
2023-02-06T23:09:46.786Z,101540.19
2023-02-06T23:14:49.508Z,101534.84
2023-02-06T23:19:53.754Z,101534.13
2023-02-06T23:24:59.597Z,101531.19
2023-02-06T23:30:02.477Z,101542.50
2023-02-06T23:35:08.329Z,101541.03
2023-02-06T23:40:13.309Z,101553.88
2023-02-06T23:45:20.716Z,101561.88
2023-02-06T23:50:26.669Z,101575.34
2023-02-06T23:55:32.517Z,101563.44
